Time;durP1;ratioP1;P1;durP2;ratioP2;P2;SDS_P1;SDS_P2;PMS_P1;PMS_P2;Temp;Humidity;BMP_temperature;BMP_pressure;BME280_temperature;BME280_humidity;BME280_pressure;Samples;Min_cycle;Max_cycle;Signal;HPM_P1;HPM_P2
2023/03/12 00:00:48;;;;;;;9.43;8.30;;;;;20.10;100085.00;;;;2071799;28;20237;-65
2023/03/12 00:01:48;;;;;;;12.40;10.37;;;;;20.10;100090.00;;;;2071827;28;20226;-65
2023/03/12 00:02:49;;;;;;;11.80;9.30;;;;;20.00;100078.00;;;;2071993;28;20210;-65
2023/03/12 00:03:49;;;;;;;10.43;9.33;;;;;20.00;100088.00;;;;2071737;28;20324;-65
2023/03/12 00:04:49;;;;;;;10.20;9.10;;;;;20.00;100089.00;;;;2068688;28;20211;-65
2023/03/12 00:05:50;;;;;;;10.60;8.73;;;;;20.00;100085.00;;;;2063548;28;20233;-65
2023/03/12 00:06:50;;;;;;;10.43;9.33;;;;;19.60;100090.00;;;;2063711;28;20211;-64
2023/03/12 00:07:51;;;;;;;9.40;8.50;;;;;20.00;100093.00;;;;2063575;28;20288;-65
2023/03/12 00:08:52;;;;;;;9.67;8.67;;;;;20.00;100095.00;;;;2063091;28;20738;-67
2023/03/12 00:09:52;;;;;;;10.17;9.00;;;;;20.00;100093.00;;;;2063606;28;20537;-66
2023/03/12 00:10:52;;;;;;;11.73;9.20;;;;;20.00;100092.00;;;;2063641;28;20207;-66
2023/03/12 00:11:53;;;;;;;9.63;8.50;;;;;20.00;100089.00;;;;2063746;28;20230;-66
2023/03/12 00:12:53;;;;;;;10.67;8.60;;;;;20.00;100091.00;;;;2063734;28;20218;-65
2023/03/12 00:13:54;;;;;;;9.80;8.30;;;;;20.00;100086.00;;;;2063632;28;20211;-65
2023/03/12 00:14:55;;;;;;;9.90;7.70;;;;;20.00;100088.00;;;;2063204;28;20243;-65
2023/03/12 00:15:55;;;;;;;9.30;8.30;;;;;20.00;100096.00;;;;2062930;28;20219;-65
2023/03/12 00:16:55;;;;;;;9.13;7.93;;;;;20.00;100083.00;;;;2063655;28;20245;-65
2023/03/12 00:17:56;;;;;;;12.20;9.30;;;;;20.00;100087.00;;;;2063409;28;20211;-65
2023/03/12 00:18:56;;;;;;;9.03;8.10;;;;;20.00;100093.00;;;;2063357;28;20257;-65
2023/03/12 00:19:56;;;;;;;10.20;9.10;;;;;20.00;100083.00;;;;2063710;28;20234;-65
2023/03/12 00:20:57;;;;;;;9.00;8.17;;;;;20.00;100088.00;;;;2063391;28;20630;-65
2023/03/12 00:21:57;;;;;;;8.70;7.73;;;;;19.90;100085.00;;;;2063664;28;20614;-65
2023/03/12 00:22:57;;;;;;;10.80;8.40;;;;;20.00;100066.00;;;;2063668;28;20806;-65
2023/03/12 00:23:58;;;;;;;9.17;7.87;;;;;20.00;100089.00;;;;2054923;28;20711;-66
2023/03/12 00:24:58;;;;;;;8.57;7.60;;;;;20.00;100090.00;;;;2054940;28;20230;-66
2023/03/12 00:26:09;;;;;;;10.13;8.23;;;;;19.90;100089.00;;;;2063239;28;20382;-65
2023/03/12 00:27:10;;;;;;;9.88;7.72;;;;;19.90;100076.00;;;;2063379;28;20353;-65
2023/03/12 00:28:10;;;;;;;8.13;7.33;;;;;19.90;100080.00;;;;2063260;28;20210;-65
2023/03/12 00:29:11;;;;;;;9.20;7.93;;;;;19.90;100079.00;;;;2062724;28;20235;-65
2023/03/12 00:30:11;;;;;;;10.27;8.73;;;;;19.90;100076.00;;;;2054783;28;21305;-65
2023/03/12 00:31:13;;;;;;;9.10;8.17;;;;;19.90;100077.00;;;;2054929;28;20715;-65
2023/03/12 00:32:14;;;;;;;10.98;7.78;;;;;19.90;100066.00;;;;2063329;28;20563;-65
2023/03/12 00:33:14;;;;;;;9.20;8.30;;;;;19.90;100066.00;;;;2063427;28;20226;-65
2023/03/12 00:34:15;;;;;;;9.20;7.77;;;;;19.90;100069.00;;;;2063555;28;20233;-65
2023/03/12 00:35:15;;;;;;;9.60;8.17;;;;;19.90;100065.00;;;;2063559;28;20736;-65
2023/03/12 00:36:16;;;;;;;9.33;8.30;;;;;19.90;100059.00;;;;2063650;28;20211;-66
2023/03/12 00:37:17;;;;;;;8.10;7.30;;;;;19.90;100034.00;;;;2063429;28;20709;-65
2023/03/12 00:38:17;;;;;;;7.83;6.90;;;;;19.90;100068.00;;;;2063177;28;20629;-65
2023/03/12 00:39:17;;;;;;;8.60;7.53;;;;;19.80;100062.00;;;;2054954;28;20639;-65
2023/03/12 00:40:18;;;;;;;8.60;7.67;;;;;19.80;100069.00;;;;2054785;28;20591;-65
2023/03/12 00:41:21;;;;;;;9.40;7.50;;;;;19.90;100066.00;;;;2068590;28;20694;-65
2023/03/12 00:42:21;;;;;;;8.60;6.78;;;;;19.80;100058.00;;;;2071508;28;20225;-65
2023/03/12 00:43:21;;;;;;;10.33;7.03;;;;;19.90;100059.00;;;;2071551;28;20222;-65
2023/03/12 00:44:22;;;;;;;6.90;6.20;;;;;19.80;100062.00;;;;2071588;28;20238;-65
2023/03/12 00:45:22;;;;;;;8.17;6.93;;;;;19.80;100053.00;;;;2070579;28;21655;-68
2023/03/12 00:46:22;;;;;;;7.30;6.60;;;;;19.80;100059.00;;;;2071456;28;20256;-66
2023/03/12 00:47:23;;;;;;;9.27;7.27;;;;;19.80;100053.00;;;;2071457;28;20297;-65
2023/03/12 00:48:24;;;;;;;8.00;6.90;;;;;19.80;100058.00;;;;2071069;28;20210;-66
2023/03/12 00:49:24;;;;;;;7.35;6.43;;;;;19.80;100046.00;;;;2071580;28;20245;-66
2023/03/12 00:50:24;;;;;;;8.40;6.80;;;;;19.80;100056.00;;;;2062858;28;20677;-65
2023/03/12 00:51:25;;;;;;;7.07;6.27;;;;;19.80;100049.00;;;;2062702;28;20356;-65
2023/03/12 00:52:25;;;;;;;7.40;6.27;;;;;19.80;100047.00;;;;2071540;28;20264;-65
2023/03/12 00:53:25;;;;;;;7.00;6.30;;;;;19.80;100049.00;;;;2071622;28;20214;-65
2023/03/12 00:54:26;;;;;;;7.30;6.40;;;;;19.80;100047.00;;;;2071355;28;20210;-65
2023/03/12 00:55:26;;;;;;;9.93;6.10;;;;;19.80;100052.00;;;;2071518;28;20297;-65
2023/03/12 00:56:26;;;;;;;7.37;6.63;;;;;19.80;100039.00;;;;2071589;28;20332;-65
2023/03/12 00:57:27;;;;;;;9.53;6.70;;;;;19.80;100038.00;;;;2071475;28;20206;-65
2023/03/12 00:58:27;;;;;;;6.80;6.10;;;;;19.80;100034.00;;;;2071164;28;20213;-65
2023/03/12 00:59:27;;;;;;;6.90;5.27;;;;;19.80;100038.00;;;;2071421;28;20617;-65
2023/03/12 01:00:28;;;;;;;7.13;5.80;;;;;19.80;100036.00;;;;2071453;28;20664;-65
2023/03/12 01:01:28;;;;;;;6.80;6.03;;;;;19.80;100028.00;;;;2062865;28;20702;-65
2023/03/12 01:02:29;;;;;;;6.77;6.07;;;;;19.80;100042.00;;;;2062621;28;20227;-65
2023/03/12 01:03:29;;;;;;;6.40;5.73;;;;;19.70;100038.00;;;;2071401;28;20217;-65
2023/03/12 01:04:29;;;;;;;6.40;5.47;;;;;19.70;100031.00;;;;2071305;28;20218;-65
2023/03/12 01:05:30;;;;;;;7.63;5.97;;;;;19.70;100032.00;;;;2063192;28;20214;-65
2023/03/12 01:06:31;;;;;;;6.88;5.90;;;;;19.70;100025.00;;;;2063458;28;20298;-65
2023/03/12 01:07:31;;;;;;;6.47;5.63;;;;;19.80;100033.00;;;;2054674;28;20702;-65
2023/03/12 01:08:31;;;;;;;6.97;5.63;;;;;19.80;100034.00;;;;2054360;28;20215;-65
2023/03/12 01:09:32;;;;;;;7.13;5.60;;;;;19.80;100030.00;;;;2054825;28;20220;-65
2023/03/12 01:10:32;;;;;;;7.20;5.60;;;;;19.70;100030.00;;;;2054585;28;20218;-65
2023/03/12 01:11:33;;;;;;;7.60;5.50;;;;;19.70;100032.00;;;;2063354;28;20207;-65
2023/03/12 01:12:33;;;;;;;6.10;5.27;;;;;19.70;100029.00;;;;2063103;28;20218;-65
2023/03/12 01:13:33;;;;;;;6.03;4.90;;;;;19.70;100031.00;;;;2063347;28;20709;-65
2023/03/12 01:14:34;;;;;;;5.20;4.70;;;;;19.70;100028.00;;;;2062806;28;20682;-65
2023/03/12 01:15:34;;;;;;;7.37;5.80;;;;;19.70;100029.00;;;;2063316;28;20218;-65
2023/03/12 01:16:34;;;;;;;6.73;5.43;;;;;19.70;100029.00;;;;2054544;28;20304;-65
2023/03/12 01:17:35;;;;;;;6.37;4.77;;;;;19.70;100030.00;;;;2054655;28;20207;-65
2023/03/12 01:18:35;;;;;;;5.40;4.60;;;;;19.70;100028.00;;;;2062796;28;20207;-65
2023/03/12 01:19:35;;;;;;;6.00;5.40;;;;;19.70;100022.00;;;;2063356;28;20222;-65
2023/03/12 01:20:36;;;;;;;5.53;5.03;;;;;19.70;100024.00;;;;2063177;28;20223;-65
2023/03/12 01:21:36;;;;;;;8.60;5.23;;;;;19.70;100016.00;;;;2063231;28;20218;-65
2023/03/12 01:22:36;;;;;;;7.70;5.07;;;;;19.70;100029.00;;;;2054740;28;20235;-65
2023/03/12 01:23:37;;;;;;;5.30;4.60;;;;;19.70;100027.00;;;;2054761;28;20218;-65
2023/03/12 01:24:37;;;;;;;5.20;4.70;;;;;19.70;100022.00;;;;2063252;28;20282;-65
2023/03/12 01:25:37;;;;;;;5.40;4.90;;;;;19.70;100024.00;;;;2063277;28;20218;-65
2023/03/12 01:26:38;;;;;;;5.60;5.00;;;;;19.60;100011.00;;;;2063299;28;20211;-65
2023/03/12 01:27:38;;;;;;;6.53;5.40;;;;;19.60;100022.00;;;;2063125;28;20207;-65
2023/03/12 01:28:38;;;;;;;5.50;4.80;;;;;19.60;100013.00;;;;2062762;28;20285;-65
2023/03/12 01:29:39;;;;;;;4.87;4.17;;;;;19.60;100010.00;;;;2063354;28;20211;-65
2023/03/12 01:30:39;;;;;;;5.93;4.57;;;;;19.60;100009.00;;;;2063238;28;20203;-65
2023/03/12 01:31:39;;;;;;;7.40;4.53;;;;;19.60;100006.00;;;;2063270;28;20235;-65
2023/03/12 01:32:40;;;;;;;5.00;4.50;;;;;19.60;100005.00;;;;2063125;28;20249;-65
2023/03/12 01:33:40;;;;;;;4.67;4.27;;;;;19.60;100000.00;;;;2063160;28;20250;-65
2023/03/12 01:34:40;;;;;;;5.43;4.53;;;;;19.60;100005.00;;;;2063111;28;20338;-65
2023/03/12 01:35:41;;;;;;;5.27;4.53;;;;;19.60;100007.00;;;;2063241;28;20234;-65
2023/03/12 01:36:41;;;;;;;6.67;4.80;;;;;19.70;100006.00;;;;2063280;28;20227;-65
2023/03/12 01:37:41;;;;;;;6.43;4.77;;;;;19.60;100008.00;;;;2063083;28;20223;-65
2023/03/12 01:38:42;;;;;;;5.03;4.53;;;;;19.60;100010.00;;;;2062769;28;20332;-65
2023/03/12 01:39:42;;;;;;;6.10;4.70;;;;;19.60;100010.00;;;;2063168;28;20260;-65
2023/03/12 01:40:42;;;;;;;4.87;4.37;;;;;19.60;100002.00;;;;2063182;28;20231;-65
2023/03/12 01:41:43;;;;;;;5.50;4.20;;;;;19.60;100007.00;;;;2063211;28;20614;-65
2023/03/12 01:42:50;;;;;;;5.03;4.30;;;;;19.60;100005.00;;;;2063237;28;20218;-65
2023/03/12 01:43:51;;;;;;;4.72;4.25;;;;;19.60;100009.00;;;;2062890;28;20222;-65
2023/03/12 01:44:54;;;;;;;5.07;4.47;;;;;19.60;100006.00;;;;2062985;28;20238;-64
2023/03/12 01:46:23;;;;;;;4.97;4.35;;;;;19.60;100000.00;;;;2062686;28;20249;-66
2023/03/12 01:47:24;;;;;;;5.63;4.22;;;;;19.60;99997.00;;;;2062889;28;20266;-65
2023/03/12 01:48:25;;;;;;;4.50;4.10;;;;;19.60;99998.00;;;;2062737;28;20264;-66
2023/03/12 01:49:27;;;;;;;4.22;3.67;;;;;19.60;99989.00;;;;2062892;28;20875;-65
2023/03/12 01:50:28;;;;;;;5.28;4.07;;;;;19.60;99977.00;;;;2054521;28;20319;-65
2023/03/12 01:51:38;;;;;;;4.27;3.73;;;;;19.60;100000.00;;;;2038781;29;20217;-65
2023/03/12 01:52:38;;;;;;;4.25;3.60;;;;;19.60;99995.00;;;;2047789;28;20267;-65
2023/03/12 01:53:38;;;;;;;4.77;4.10;;;;;19.60;99990.00;;;;2047282;28;20692;-65
2023/03/12 01:54:53;;;;;;;3.93;3.63;;;;;19.60;99982.00;;;;2054382;28;20204;-65
2023/03/12 01:55:53;;;;;;;4.75;4.00;;;;;19.60;99991.00;;;;2054339;28;20699;-65
2023/03/12 01:56:54;;;;;;;4.87;4.00;;;;;19.60;99964.00;;;;2055879;28;20219;-66
2023/03/12 01:57:55;;;;;;;5.43;4.20;;;;;19.60;99962.00;;;;2054741;28;20211;-65
2023/03/12 01:58:57;;;;;;;4.00;3.60;;;;;19.50;99978.00;;;;2048040;28;20360;-65
2023/03/12 02:00:00;;;;;;;7.60;3.58;;;;;19.50;99972.00;;;;2055512;28;20461;-66
2023/03/12 02:01:00;;;;;;;4.13;3.72;;;;;19.50;99973.00;;;;2055886;28;20223;-65
2023/03/12 02:02:01;;;;;;;4.60;3.97;;;;;19.50;99976.00;;;;2056140;28;20234;-65
2023/03/12 02:03:05;;;;;;;3.90;3.47;;;;;19.50;99968.00;;;;2056083;28;20222;-65
2023/03/12 02:04:05;;;;;;;4.30;3.90;;;;;19.50;99976.00;;;;2048433;28;20320;-65
2023/03/12 02:05:10;;;;;;;4.00;3.60;;;;;19.50;99977.00;;;;2055913;28;20761;-65
2023/03/12 02:06:12;;;;;;;4.95;3.60;;;;;19.50;99972.00;;;;2055572;28;20712;-65
2023/03/12 02:07:14;;;;;;;5.00;3.58;;;;;19.50;99975.00;;;;2056164;28;20301;-65
2023/03/12 02:08:14;;;;;;;4.30;3.60;;;;;19.50;99978.00;;;;2055896;28;20244;-65
2023/03/12 02:09:15;;;;;;;5.27;3.80;;;;;19.50;99974.00;;;;2048005;28;20291;-65
2023/03/12 02:10:15;;;;;;;4.23;3.43;;;;;19.50;99981.00;;;;2048049;28;20212;-65
2023/03/12 02:11:15;;;;;;;4.20;3.07;;;;;19.50;99979.00;;;;2047957;29;20220;-65
2023/03/12 02:12:16;;;;;;;3.97;3.10;;;;;19.50;99977.00;;;;2064571;28;20215;-65
2023/03/12 02:13:16;;;;;;;6.17;4.00;;;;;19.50;99975.00;;;;2056020;28;20240;-65
2023/03/12 02:14:17;;;;;;;4.10;3.70;;;;;19.50;99972.00;;;;2047604;28;21238;-65
2023/03/12 02:15:17;;;;;;;4.83;3.50;;;;;19.50;99975.00;;;;2055763;28;20204;-65
2023/03/12 02:16:17;;;;;;;3.50;3.20;;;;;19.50;99974.00;;;;2055929;28;20286;-65
2023/03/12 02:17:18;;;;;;;4.20;3.43;;;;;19.50;99976.00;;;;2055907;28;20782;-66
2023/03/12 02:18:18;;;;;;;4.10;3.20;;;;;19.50;99976.00;;;;2064464;28;20261;-65
2023/03/12 02:19:43;;;;;;;3.23;2.93;;;;;19.50;99970.00;;;;2055990;28;20225;-65
2023/03/12 02:21:11;;;;;;;3.97;3.60;;;;;19.50;99965.00;;;;2050966;28;20580;-65
2023/03/12 02:22:12;;;;;;;4.45;3.58;;;;;19.50;99957.00;;;;2062105;28;20617;-65
2023/03/12 02:23:32;;;;;;;3.47;3.17;;;;;19.50;99956.00;;;;2055903;28;20239;-65
2023/03/12 02:24:34;;;;;;;3.60;3.28;;;;;19.40;99960.00;;;;2050364;28;20226;-65
2023/03/12 02:25:37;;;;;;;3.20;2.90;;;;;19.40;99951.00;;;;2047924;28;20632;-65
2023/03/12 02:26:37;;;;;;;3.50;2.95;;;;;19.40;99947.00;;;;2048373;28;20308;-65
2023/03/12 02:27:38;;;;;;;4.27;3.70;;;;;19.40;99952.00;;;;2055744;28;20207;-65
2023/03/12 02:28:42;;;;;;;3.43;3.13;;;;;19.40;99943.00;;;;2055553;28;20716;-65
2023/03/12 02:29:43;;;;;;;3.38;3.00;;;;;19.40;99922.00;;;;2055807;28;21122;-65
2023/03/12 02:30:44;;;;;;;5.60;2.83;;;;;19.40;99949.00;;;;2047790;28;20255;-65
2023/03/12 02:31:49;;;;;;;4.05;2.92;;;;;19.40;99946.00;;;;2048198;28;20271;-65
2023/03/12 02:32:49;;;;;;;3.70;2.88;;;;;19.40;99945.00;;;;2055666;28;20219;-65
2023/03/12 02:33:51;;;;;;;3.33;3.03;;;;;19.40;99949.00;;;;2047809;29;20247;-65
2023/03/12 02:34:52;;;;;;;4.07;3.30;;;;;19.40;99949.00;;;;2055832;28;20281;-65
2023/03/12 02:35:52;;;;;;;3.47;3.17;;;;;19.40;99950.00;;;;2055950;28;20219;-65
2023/03/12 02:36:53;;;;;;;4.30;2.97;;;;;19.40;99949.00;;;;2064279;28;20338;-67
2023/03/12 02:37:54;;;;;;;3.70;2.80;;;;;19.40;99956.00;;;;2064331;28;20457;-67
2023/03/12 02:38:55;;;;;;;4.30;3.35;;;;;19.40;99943.00;;;;2063921;28;20574;-66
2023/03/12 02:39:59;;;;;;;3.50;2.83;;;;;19.40;99948.00;;;;2064418;28;20219;-66
2023/03/12 02:41:02;;;;;;;4.05;3.00;;;;;19.40;99951.00;;;;2055753;28;20267;-64
2023/03/12 02:42:03;;;;;;;3.45;2.70;;;;;19.40;99951.00;;;;2055844;28;20214;-65
2023/03/12 02:43:04;;;;;;;4.30;2.93;;;;;19.40;99951.00;;;;2055710;28;20219;-64
2023/03/12 02:44:05;;;;;;;4.05;2.30;;;;;19.40;99956.00;;;;2047599;28;20215;-64
2023/03/12 02:45:05;;;;;;;3.37;2.70;;;;;19.40;99954.00;;;;2055751;28;20238;-65
2023/03/12 02:46:06;;;;;;;3.10;2.70;;;;;19.40;99961.00;;;;2055776;28;20212;-65
2023/03/12 02:47:06;;;;;;;3.43;3.03;;;;;19.40;99956.00;;;;2047790;28;20224;-65
2023/03/12 02:48:07;;;;;;;3.63;2.67;;;;;19.40;99961.00;;;;2055318;28;20588;-65
2023/03/12 02:49:07;;;;;;;3.07;2.43;;;;;19.40;99950.00;;;;2055536;28;20216;-65
2023/03/12 02:50:08;;;;;;;4.73;2.80;;;;;19.40;99943.00;;;;2055732;28;20526;-65
2023/03/12 02:51:09;;;;;;;4.73;2.63;;;;;19.40;99952.00;;;;2055586;28;20801;-65
2023/03/12 02:52:09;;;;;;;5.67;3.47;;;;;19.40;99947.00;;;;2055763;28;20833;-65
2023/03/12 02:53:09;;;;;;;3.90;2.63;;;;;19.40;99938.00;;;;2064348;28;20257;-65
2023/03/12 02:54:10;;;;;;;2.73;2.30;;;;;19.40;99946.00;;;;2064407;28;20261;-65
2023/03/12 02:55:10;;;;;;;3.83;2.97;;;;;19.40;99942.00;;;;2055576;28;20310;-65
2023/03/12 02:56:11;;;;;;;4.20;2.70;;;;;19.40;99937.00;;;;2047751;28;20224;-65
2023/03/12 02:57:11;;;;;;;2.33;2.13;;;;;19.40;99936.00;;;;2055237;28;20315;-65
2023/03/12 02:58:11;;;;;;;3.63;2.47;;;;;19.40;99935.00;;;;2063865;28;20223;-65
2023/03/12 02:59:13;;;;;;;2.47;2.27;;;;;19.30;99933.00;;;;2064347;28;20298;-64
2023/03/12 03:00:14;;;;;;;2.75;2.10;;;;;19.30;99928.00;;;;2055541;28;20264;-65
2023/03/12 03:01:14;;;;;;;2.90;2.60;;;;;19.30;99922.00;;;;2047839;28;20240;-65
2023/03/12 03:02:14;;;;;;;2.97;2.67;;;;;19.30;99920.00;;;;2047692;29;20448;-65
2023/03/12 03:03:15;;;;;;;2.70;2.10;;;;;19.30;99922.00;;;;2055716;28;20298;-65
2023/03/12 03:04:15;;;;;;;3.00;2.57;;;;;19.30;99922.00;;;;2064199;28;20215;-65
2023/03/12 03:05:15;;;;;;;2.57;2.37;;;;;19.30;99920.00;;;;2070553;28;20226;-65
2023/03/12 03:06:16;;;;;;;2.30;2.10;;;;;19.30;99925.00;;;;2072248;28;20234;-65
2023/03/12 03:07:16;;;;;;;2.30;2.00;;;;;19.30;99925.00;;;;2063399;28;20218;-65
2023/03/12 03:08:16;;;;;;;3.57;2.50;;;;;19.30;99919.00;;;;2063309;28;20620;-65
2023/03/12 03:09:18;;;;;;;2.40;2.20;;;;;19.30;99923.00;;;;2071726;28;20679;-65
2023/03/12 03:10:18;;;;;;;3.10;2.17;;;;;19.30;99923.00;;;;2072313;28;20210;-64
2023/03/12 03:11:23;;;;;;;5.10;2.27;;;;;19.30;99921.00;;;;2063479;28;20252;-65
2023/03/12 03:12:23;;;;;;;4.95;2.35;;;;;19.30;99924.00;;;;2063954;28;20261;-66
2023/03/12 03:13:23;;;;;;;3.00;2.47;;;;;19.30;99924.00;;;;2071270;28;20466;-68
2023/03/12 03:14:24;;;;;;;3.13;2.30;;;;;19.30;99921.00;;;;2071953;28;20222;-67
2023/03/12 03:15:24;;;;;;;4.43;2.23;;;;;19.30;99904.00;;;;2063631;28;20226;-66
2023/03/12 03:16:24;;;;;;;3.53;2.50;;;;;19.30;99918.00;;;;2063394;28;20221;-66
2023/03/12 03:17:25;;;;;;;2.70;2.10;;;;;19.30;99923.00;;;;2063160;28;20230;-66
2023/03/12 03:18:25;;;;;;;2.53;2.03;;;;;19.30;99928.00;;;;2055206;28;20230;-66
2023/03/12 03:19:26;;;;;;;3.07;1.97;;;;;19.30;99921.00;;;;2055220;28;20625;-65
2023/03/12 03:20:26;;;;;;;3.50;2.30;;;;;19.30;99919.00;;;;2072166;28;20624;-65
2023/03/12 03:21:26;;;;;;;2.67;2.20;;;;;19.30;99915.00;;;;2063532;28;20713;-65
2023/03/12 03:22:26;;;;;;;3.13;2.37;;;;;19.30;99913.00;;;;2063270;28;20232;-65
2023/03/12 03:23:27;;;;;;;2.70;1.57;;;;;19.30;99915.00;;;;2072122;28;20225;-65
2023/03/12 03:24:27;;;;;;;2.70;2.30;;;;;19.30;99913.00;;;;2063174;28;20261;-65
2023/03/12 03:25:28;;;;;;;3.03;2.00;;;;;19.30;99907.00;;;;2055135;28;20311;-65
2023/03/12 03:26:28;;;;;;;3.20;1.80;;;;;19.30;99917.00;;;;2063349;28;21107;-65
2023/03/12 03:27:28;;;;;;;3.30;2.03;;;;;19.30;99917.00;;;;2071959;28;20296;-66
2023/03/12 03:28:29;;;;;;;3.00;2.03;;;;;19.30;99928.00;;;;2071849;28;20214;-65
2023/03/12 03:29:29;;;;;;;2.30;1.90;;;;;19.30;99918.00;;;;2063110;28;20217;-65
2023/03/12 03:30:29;;;;;;;2.70;2.13;;;;;19.20;99906.00;;;;2063476;28;20238;-64
2023/03/12 03:31:30;;;;;;;2.73;2.27;;;;;19.30;99907.00;;;;2072004;28;20210;-65
2023/03/12 03:32:30;;;;;;;2.50;2.10;;;;;19.30;99907.00;;;;2063434;28;20269;-65
2023/03/12 03:33:32;;;;;;;2.43;1.80;;;;;19.20;99909.00;;;;2063274;28;20247;-65
2023/03/12 03:34:32;;;;;;;2.38;1.77;;;;;19.20;99914.00;;;;2072032;28;20218;-65
2023/03/12 03:35:33;;;;;;;2.50;1.90;;;;;19.20;99904.00;;;;2072114;28;20867;-65
2023/03/12 03:36:33;;;;;;;2.63;2.00;;;;;19.20;99909.00;;;;2072127;28;20214;-65
2023/03/12 03:37:34;;;;;;;2.40;2.03;;;;;19.30;99911.00;;;;2071930;28;20210;-65
2023/03/12 03:38:34;;;;;;;2.77;1.67;;;;;19.20;99905.00;;;;2071728;28;20624;-65
2023/03/12 03:39:35;;;;;;;2.27;1.67;;;;;19.20;99911.00;;;;2071989;28;20613;-65
2023/03/12 03:40:35;;;;;;;2.13;1.60;;;;;19.20;99905.00;;;;2072017;28;20221;-65
2023/03/12 03:41:36;;;;;;;3.67;2.00;;;;;19.20;99901.00;;;;2071801;28;20344;-65
2023/03/12 03:42:37;;;;;;;3.57;1.87;;;;;19.20;99910.00;;;;2072071;28;20216;-65
2023/03/12 03:43:37;;;;;;;2.83;1.70;;;;;19.20;99906.00;;;;2072101;28;21278;-65
2023/03/12 03:44:38;;;;;;;2.20;2.00;;;;;19.20;99901.00;;;;2071805;28;20228;-65
2023/03/12 03:45:38;;;;;;;2.93;1.60;;;;;19.20;99902.00;;;;2071988;28;20210;-65
2023/03/12 03:46:38;;;;;;;2.90;1.67;;;;;19.20;99899.00;;;;2072080;28;20222;-65
2023/03/12 03:47:39;;;;;;;2.57;1.63;;;;;19.20;99896.00;;;;2072017;28;20218;-65
2023/03/12 03:48:39;;;;;;;3.50;1.80;;;;;19.20;99897.00;;;;2071711;28;20214;-65
2023/03/12 03:49:39;;;;;;;2.50;1.80;;;;;19.20;99896.00;;;;2071799;28;20214;-64
2023/03/12 03:50:40;;;;;;;2.80;1.83;;;;;19.20;99788.00;;;;2063258;28;20675;-65
2023/03/12 03:51:43;;;;;;;3.30;2.30;;;;;19.10;99901.00;;;;2063067;28;20254;-65
2023/03/12 03:52:44;;;;;;;3.33;1.90;;;;;19.20;99907.00;;;;2072064;28;20233;-65
2023/03/12 03:53:44;;;;;;;2.50;1.70;;;;;19.20;99890.00;;;;2072039;28;20571;-65
2023/03/12 03:54:44;;;;;;;2.37;1.80;;;;;19.20;99899.00;;;;2071977;28;20261;-65
2023/03/12 03:55:45;;;;;;;2.13;1.40;;;;;19.10;99880.00;;;;2071846;28;20579;-65
2023/03/12 03:56:46;;;;;;;1.83;1.40;;;;;19.20;99902.00;;;;2063211;28;20601;-64
2023/03/12 03:57:46;;;;;;;1.77;1.65;;;;;19.20;99896.00;;;;2063393;28;20218;-65
2023/03/12 03:58:47;;;;;;;2.63;1.60;;;;;19.20;99897.00;;;;2063066;28;20222;-65
2023/03/12 03:59:47;;;;;;;3.23;1.57;;;;;19.10;99887.00;;;;2063213;28;20221;-65
2023/03/12 04:00:47;;;;;;;3.70;2.30;;;;;19.10;99904.00;;;;2071716;28;20226;-64
2023/03/12 04:01:48;;;;;;;3.23;2.20;;;;;19.20;99892.00;;;;2071785;28;20256;-65
2023/03/12 04:02:48;;;;;;;1.60;1.50;;;;;19.20;99903.00;;;;2071930;28;20221;-65
2023/03/12 04:03:48;;;;;;;2.20;1.70;;;;;19.20;99897.00;;;;2071910;28;20220;-65
2023/03/12 04:04:49;;;;;;;1.80;1.50;;;;;19.10;99895.00;;;;2069217;28;20250;-65
2023/03/12 04:05:54;;;;;;;1.80;1.33;;;;;19.10;99899.00;;;;2063871;28;20217;-65
2023/03/12 04:06:54;;;;;;;2.40;1.67;;;;;19.10;99898.00;;;;2063076;28;20207;-65
2023/03/12 04:07:54;;;;;;;2.70;1.90;;;;;19.10;99892.00;;;;2063852;28;20281;-66
2023/03/12 04:08:55;;;;;;;2.93;1.70;;;;;19.10;99895.00;;;;2063724;28;20215;-65
2023/03/12 04:09:57;;;;;;;4.78;2.00;;;;;19.20;99896.00;;;;2063590;28;20226;-65
2023/03/12 04:10:57;;;;;;;2.25;1.60;;;;;19.20;99897.00;;;;2063745;28;20226;-65
2023/03/12 04:11:57;;;;;;;2.23;1.43;;;;;19.10;99901.00;;;;2063654;28;20211;-64
2023/03/12 04:12:58;;;;;;;2.63;1.47;;;;;19.10;99897.00;;;;2063767;28;20210;-65
2023/03/12 04:13:58;;;;;;;3.17;1.57;;;;;19.10;99890.00;;;;2055028;28;20311;-65
2023/03/12 04:14:58;;;;;;;2.83;1.67;;;;;19.10;99888.00;;;;2054989;28;20567;-65
2023/03/12 04:15:58;;;;;;;2.00;1.80;;;;;19.10;99883.00;;;;2063917;28;20231;-65
2023/03/12 04:16:59;;;;;;;2.27;1.63;;;;;19.10;99880.00;;;;2063851;28;20226;-65
2023/03/12 04:17:59;;;;;;;2.50;1.77;;;;;19.10;99887.00;;;;2063623;28;20222;-65
2023/03/12 04:19:00;;;;;;;3.63;2.37;;;;;19.10;99886.00;;;;2063836;28;20230;-65
2023/03/12 04:20:00;;;;;;;1.90;1.70;;;;;19.10;99888.00;;;;2063583;28;20225;-65
2023/03/12 04:21:01;;;;;;;2.03;1.30;;;;;19.10;99881.00;;;;2062970;28;20241;-64
2023/03/12 04:22:01;;;;;;;2.47;1.70;;;;;19.10;99891.00;;;;2055285;28;20220;-65
2023/03/12 04:23:02;;;;;;;4.00;1.90;;;;;19.10;99884.00;;;;2055174;28;20903;-65
2023/03/12 04:24:02;;;;;;;3.07;1.57;;;;;19.10;99884.00;;;;2063392;28;20702;-64
2023/03/12 04:25:03;;;;;;;2.97;1.60;;;;;19.10;99886.00;;;;2063715;28;20222;-65
2023/03/12 04:26:04;;;;;;;3.67;1.60;;;;;19.10;99884.00;;;;2063715;28;20221;-65
2023/03/12 04:27:04;;;;;;;2.47;1.60;;;;;19.10;99886.00;;;;2055163;28;20218;-65
2023/03/12 04:28:04;;;;;;;2.10;1.83;;;;;19.10;99880.00;;;;2055002;28;20223;-65
2023/03/12 04:29:05;;;;;;;1.70;1.40;;;;;19.10;99884.00;;;;2053359;28;20222;-64
2023/03/12 04:30:05;;;;;;;2.13;1.70;;;;;19.10;99874.00;;;;2046694;28;20583;-64
2023/03/12 04:31:06;;;;;;;3.20;1.50;;;;;19.10;99862.00;;;;2047375;28;20267;-64
2023/03/12 04:32:06;;;;;;;2.30;1.57;;;;;19.10;99880.00;;;;2047508;29;20569;-65
2023/03/12 04:33:07;;;;;;;3.03;1.70;;;;;19.10;99879.00;;;;2055215;28;20210;-65
2023/03/12 04:34:08;;;;;;;2.63;1.40;;;;;19.10;99874.00;;;;2054892;28;20211;-65
2023/03/12 04:35:08;;;;;;;4.03;1.60;;;;;19.10;99867.00;;;;2054836;28;20212;-65
2023/03/12 04:36:08;;;;;;;2.27;1.50;;;;;19.10;99876.00;;;;2063708;28;20218;-65
2023/03/12 04:37:14;;;;;;;2.30;1.70;;;;;19.10;99877.00;;;;2063599;28;20313;-65
2023/03/12 04:38:15;;;;;;;2.83;1.80;;;;;19.10;99872.00;;;;2054948;28;20231;-65
2023/03/12 04:39:17;;;;;;;3.00;1.60;;;;;19.10;99883.00;;;;2055747;28;20218;-65
2023/03/12 04:40:18;;;;;;;2.15;1.38;;;;;19.10;99877.00;;;;2054701;28;20256;-65
2023/03/12 04:41:19;;;;;;;2.20;1.50;;;;;19.10;99878.00;;;;2055129;28;20218;-65
2023/03/12 04:42:19;;;;;;;2.57;1.80;;;;;19.10;99876.00;;;;2063788;28;20317;-65
2023/03/12 04:43:19;;;;;;;4.47;1.90;;;;;19.10;99876.00;;;;2063695;28;20219;-65
2023/03/12 04:44:20;;;;;;;2.77;1.73;;;;;19.10;99872.00;;;;2063626;28;20277;-65
2023/03/12 04:45:20;;;;;;;3.70;1.80;;;;;19.10;99866.00;;;;2063707;28;20226;-65
2023/03/12 04:46:20;;;;;;;2.20;1.50;;;;;19.10;99873.00;;;;2063736;28;20593;-65
2023/03/12 04:47:21;;;;;;;2.13;1.60;;;;;19.10;99873.00;;;;2063747;28;20262;-65
2023/03/12 04:48:21;;;;;;;1.50;1.27;;;;;19.00;99859.00;;;;2054678;28;20219;-65
2023/03/12 04:49:22;;;;;;;3.10;1.37;;;;;19.00;99861.00;;;;2055016;28;20222;-65
2023/03/12 04:50:22;;;;;;;2.43;1.23;;;;;19.00;99863.00;;;;2054653;28;20220;-65
2023/03/12 04:51:23;;;;;;;2.77;1.87;;;;;19.00;99864.00;;;;2054880;28;20331;-65
2023/03/12 04:52:23;;;;;;;2.33;1.43;;;;;19.00;99856.00;;;;2054991;28;20277;-65
2023/03/12 04:53:24;;;;;;;2.07;1.73;;;;;19.00;99861.00;;;;2046913;28;20226;-65
2023/03/12 04:54:24;;;;;;;3.33;1.70;;;;;19.00;99874.00;;;;2046659;29;20621;-66
2023/03/12 04:55:24;;;;;;;1.90;1.47;;;;;19.00;99864.00;;;;2045858;29;20652;-66
2023/03/12 04:56:25;;;;;;;1.93;1.43;;;;;19.00;99861.00;;;;2063247;28;20785;-66
2023/03/12 04:57:25;;;;;;;2.63;1.57;;;;;19.00;99861.00;;;;2063464;28;20810;-65
2023/03/12 04:58:25;;;;;;;2.30;1.53;;;;;19.10;99861.00;;;;2054617;28;20661;-65
2023/03/12 04:59:26;;;;;;;3.97;1.70;;;;;19.00;99860.00;;;;2046820;28;20227;-65
2023/03/12 05:00:26;;;;;;;3.40;1.30;;;;;19.00;99856.00;;;;2046592;29;20215;-65
2023/03/12 05:01:28;;;;;;;2.50;1.40;;;;;19.00;99854.00;;;;2054612;28;20726;-65
2023/03/12 05:02:28;;;;;;;2.03;1.70;;;;;19.00;99845.00;;;;2054937;28;20215;-65
2023/03/12 05:03:29;;;;;;;2.40;1.70;;;;;19.00;99844.00;;;;2046800;28;20294;-65
2023/03/12 05:04:29;;;;;;;2.53;1.40;;;;;19.00;99851.00;;;;2054212;28;20253;-65